createdAt,value
2018-12-21T00:00:40.083Z,4.02
2018-12-21T00:03:12.770Z,3.99
2018-12-21T00:05:42.419Z,4.01
2018-12-21T00:08:11.759Z,3.97
2018-12-21T00:10:41.239Z,3.95
2018-12-21T00:13:10.510Z,3.94
2018-12-21T00:15:40.394Z,4.00
2018-12-21T00:18:12.443Z,4.01
2018-12-21T00:20:41.774Z,4.00
2018-12-21T00:23:11.123Z,4.00
2018-12-21T00:25:40.453Z,3.98
2018-12-21T00:28:09.748Z,3.99
2018-12-21T00:30:38.946Z,4.01
2018-12-21T00:33:14.681Z,3.99
2018-12-21T00:35:49.898Z,4.00
2018-12-21T00:38:24.961Z,4.00
2018-12-21T00:40:59.505Z,3.99
2018-12-21T00:43:34.758Z,3.99
2018-12-21T00:46:11.948Z,3.99
2018-12-21T00:48:42.097Z,3.98
2018-12-21T00:51:13.128Z,3.94
2018-12-21T00:53:44.124Z,3.95
2018-12-21T00:56:13.534Z,3.96
2018-12-21T00:58:43.611Z,3.97
2018-12-21T01:01:13.856Z,3.97
2018-12-21T01:03:43.219Z,3.96
2018-12-21T01:06:12.538Z,3.97
2018-12-21T01:08:42.160Z,3.97
2018-12-21T01:14:05.137Z,3.88
2018-12-21T01:16:34.726Z,3.86
2018-12-21T01:19:04.027Z,3.84
2018-12-21T01:21:38.647Z,3.87
2018-12-21T01:24:06.137Z,3.86
2018-12-21T01:26:35.832Z,3.90
2018-12-21T01:29:07.255Z,3.91
2018-12-21T01:31:37.076Z,3.92
2018-12-21T01:34:06.330Z,3.93
2018-12-21T01:36:35.885Z,3.95
2018-12-21T01:39:07.190Z,4.00
2018-12-21T01:41:36.478Z,3.99
2018-12-21T01:44:06.572Z,3.99
2018-12-21T01:46:36.975Z,3.98
2018-12-21T01:49:06.434Z,3.98
2018-12-21T01:51:35.713Z,3.99
2018-12-21T01:54:05.072Z,4.00
2018-12-21T01:56:34.327Z,3.97
2018-12-21T01:59:03.578Z,3.98
2018-12-21T02:02:04.879Z,4.00
2018-12-21T02:04:35.569Z,4.02
2018-12-21T02:07:05.361Z,4.02
2018-12-21T02:09:34.642Z,4.06
2018-12-21T02:12:05.890Z,4.07
2018-12-21T02:14:36.037Z,4.11
2018-12-21T02:17:06.089Z,4.16
2018-12-21T02:19:36.313Z,4.18
2018-12-21T02:22:06.082Z,4.17
2018-12-21T02:24:35.420Z,4.15
2018-12-21T02:27:05.155Z,4.15
2018-12-21T02:29:35.059Z,4.17
2018-12-21T02:32:04.338Z,4.17
2018-12-21T02:34:33.703Z,4.16
2018-12-21T02:37:04.324Z,4.18
2018-12-21T02:39:33.662Z,4.18
2018-12-21T02:42:03.801Z,4.18
2018-12-21T02:44:33.151Z,4.18
2018-12-21T02:47:03.338Z,4.21
2018-12-21T02:49:32.807Z,4.22
2018-12-21T02:52:05.731Z,4.21
2018-12-21T02:54:34.021Z,4.22
2018-12-21T02:57:04.684Z,4.20
2018-12-21T02:59:34.123Z,4.20
2018-12-21T03:02:03.414Z,4.23
2018-12-21T03:04:32.785Z,4.24
2018-12-21T03:07:03.068Z,4.23
2018-12-21T03:09:33.138Z,4.23
2018-12-21T03:12:02.416Z,4.25
2018-12-21T03:14:31.757Z,4.24
2018-12-21T03:17:01.022Z,4.27
2018-12-21T03:19:30.299Z,4.26
2018-12-21T03:21:59.539Z,4.30
2018-12-21T03:24:28.828Z,4.29
2018-12-21T03:26:58.085Z,4.30
2018-12-21T03:29:27.345Z,4.31
2018-12-21T03:31:58.356Z,4.30
2018-12-21T03:34:27.647Z,4.31
2018-12-21T03:36:57.858Z,4.30
2018-12-21T03:39:28.162Z,4.30
2018-12-21T03:41:58.693Z,4.30
2018-12-21T03:44:27.984Z,4.31
2018-12-21T03:46:57.258Z,4.31
2018-12-21T03:49:26.840Z,4.34
2018-12-21T03:51:56.096Z,4.32
2018-12-21T03:54:25.369Z,4.28
2018-12-21T03:56:54.694Z,4.28
2018-12-21T03:59:24.399Z,4.29
2018-12-21T04:01:54.365Z,4.28
2018-12-21T04:04:23.653Z,4.29
2018-12-21T04:06:53.446Z,4.27
2018-12-21T04:09:22.735Z,4.30
2018-12-21T04:11:53.076Z,4.29
2018-12-21T04:14:22.827Z,4.28
2018-12-21T04:16:52.088Z,4.30
2018-12-21T04:19:21.342Z,4.34
2018-12-21T04:21:50.871Z,4.34
2018-12-21T04:24:20.130Z,4.32
2018-12-21T04:26:49.451Z,4.28
2018-12-21T04:29:19.629Z,4.29
2018-12-21T04:31:48.927Z,4.26
2018-12-21T04:34:19.249Z,4.24
2018-12-21T04:36:49.103Z,4.21
2018-12-21T04:39:18.353Z,4.21
2018-12-21T04:41:47.760Z,4.22
2018-12-21T04:44:17.037Z,4.20
2018-12-21T04:46:46.626Z,4.20
2018-12-21T04:49:15.873Z,4.18
2018-12-21T04:51:45.542Z,4.20
2018-12-21T04:54:15.938Z,4.21
2018-12-21T04:56:45.192Z,4.27
2018-12-21T04:59:14.742Z,4.28
2018-12-21T05:01:45.527Z,4.27
2018-12-21T05:04:19.661Z,4.24
2018-12-21T05:06:46.928Z,4.30
2018-12-21T05:09:16.231Z,4.28
2018-12-21T05:11:45.916Z,4.30
2018-12-21T05:14:16.005Z,4.31
2018-12-21T05:16:45.237Z,4.30
2018-12-21T05:19:14.831Z,4.29
2018-12-21T05:21:45.104Z,4.34
2018-12-21T05:24:14.360Z,4.36
2018-12-21T05:26:43.786Z,4.38
2018-12-21T05:29:13.490Z,4.39
2018-12-21T05:31:43.101Z,4.43
2018-12-21T05:34:12.841Z,4.45
2018-12-21T05:36:42.156Z,4.43
2018-12-21T05:39:12.409Z,4.45
2018-12-21T05:41:41.657Z,4.44
2018-12-21T05:44:11.387Z,4.46
2018-12-21T05:46:40.920Z,4.43
2018-12-21T05:49:11.100Z,4.42
2018-12-21T05:51:40.859Z,4.41
2018-12-21T05:54:10.139Z,4.40
2018-12-21T05:56:39.388Z,4.40
2018-12-21T05:59:09.234Z,4.40
2018-12-21T06:01:38.490Z,4.39
2018-12-21T06:04:07.838Z,4.37
2018-12-21T06:06:39.527Z,4.34
2018-12-21T06:09:10.300Z,4.32
2018-12-21T06:11:39.776Z,4.29
2018-12-21T06:14:09.171Z,4.28
2018-12-21T06:16:38.825Z,4.26
2018-12-21T06:19:09.704Z,4.23
2018-12-21T06:21:39.402Z,4.21
2018-12-21T06:24:08.649Z,4.19
2018-12-21T06:26:37.896Z,4.20
2018-12-21T06:29:08.048Z,4.21
2018-12-21T06:31:37.830Z,4.23
2018-12-21T06:34:07.472Z,4.22
2018-12-21T06:36:38.461Z,4.22
2018-12-21T06:39:09.085Z,4.24
2018-12-21T06:41:38.362Z,4.27
2018-12-21T06:44:07.815Z,4.31
2018-12-21T06:46:39.485Z,4.31
2018-12-21T06:49:08.849Z,4.29
2018-12-21T06:51:38.113Z,4.29
2018-12-21T06:54:07.661Z,4.31
2018-12-21T06:56:39.442Z,4.34
2018-12-21T06:59:08.742Z,4.38
2018-12-21T07:01:38.414Z,4.44
2018-12-21T07:04:07.673Z,4.54
2018-12-21T07:06:37.437Z,4.56
2018-12-21T07:09:08.284Z,4.61
2018-12-21T07:11:39.445Z,4.60
2018-12-21T07:14:08.782Z,4.62
2018-12-21T07:16:40.362Z,4.62
2018-12-21T07:19:11.356Z,4.63
2018-12-21T07:21:40.609Z,4.64
2018-12-21T07:24:09.822Z,4.61
2018-12-21T07:26:39.613Z,4.59
2018-12-21T07:29:09.301Z,4.61
2018-12-21T07:31:39.478Z,4.61
2018-12-21T07:34:09.439Z,4.59
2018-12-21T07:36:38.695Z,4.70
2018-12-21T07:39:09.385Z,4.72
2018-12-21T07:41:38.802Z,4.71
2018-12-21T07:44:08.081Z,4.76
2018-12-21T07:46:37.619Z,4.75
2018-12-21T07:49:08.453Z,4.71
2018-12-21T07:51:37.901Z,4.71
2018-12-21T07:54:07.940Z,4.74
2018-12-21T07:56:37.955Z,4.76
2018-12-21T07:59:07.200Z,4.73
2018-12-21T08:01:37.636Z,4.73
2018-12-21T08:04:08.093Z,4.75
2018-12-21T08:06:38.006Z,4.76
2018-12-21T08:09:09.119Z,4.72
2018-12-21T08:11:38.438Z,4.70
2018-12-21T08:14:08.643Z,4.64
2018-12-21T08:16:37.891Z,4.58
2018-12-21T08:19:07.909Z,4.52
2018-12-21T08:21:37.953Z,4.51
2018-12-21T08:24:07.253Z,4.51
2018-12-21T08:26:40.562Z,4.52
2018-12-21T08:29:11.034Z,4.51
2018-12-21T08:31:41.680Z,4.47
2018-12-21T08:34:10.955Z,4.45
2018-12-21T08:36:40.445Z,4.43
2018-12-21T08:39:12.809Z,4.40
2018-12-21T08:41:42.088Z,4.38
2018-12-21T08:44:12.407Z,4.40
2018-12-21T08:46:41.670Z,4.37
2018-12-21T08:49:12.407Z,4.36
2018-12-21T08:51:42.016Z,4.37
2018-12-21T08:54:11.266Z,4.38
2018-12-21T08:56:40.569Z,4.44
2018-12-21T08:59:09.863Z,4.44
2018-12-21T09:01:40.322Z,4.45
2018-12-21T09:04:12.825Z,4.46
2018-12-21T09:06:43.810Z,4.48
2018-12-21T09:09:13.125Z,4.50
2018-12-21T09:11:42.831Z,4.55
2018-12-21T09:14:30.708Z,4.58
2018-12-21T09:17:15.662Z,4.64
2018-12-21T09:19:45.646Z,4.68
2018-12-21T09:22:15.992Z,4.70
2018-12-21T09:24:48.614Z,4.71
2018-12-21T09:27:18.089Z,4.73
2018-12-21T09:29:48.197Z,4.76
2018-12-21T09:32:18.149Z,4.78
2018-12-21T09:34:47.707Z,4.77
2018-12-21T09:37:17.319Z,4.76
2018-12-21T09:39:46.871Z,4.74
2018-12-21T09:42:16.151Z,4.75
2018-12-21T09:44:52.527Z,4.75
2018-12-21T09:47:20.845Z,4.75
2018-12-21T09:49:57.640Z,4.71
2018-12-21T09:55:35.788Z,4.64
2018-12-21T09:58:05.662Z,4.61
2018-12-21T10:00:35.789Z,4.57
2018-12-21T10:03:05.518Z,4.55
2018-12-21T10:05:35.237Z,4.55
2018-12-21T10:08:04.496Z,4.53
2018-12-21T10:10:33.792Z,4.51
2018-12-21T10:13:03.408Z,4.50
2018-12-21T10:15:34.168Z,4.50
2018-12-21T10:18:03.387Z,4.50
2018-12-21T10:20:34.081Z,4.49
2018-12-21T10:23:05.940Z,4.45
2018-12-21T10:25:36.997Z,4.44
2018-12-21T10:28:06.848Z,4.43
2018-12-21T10:30:36.055Z,4.41
2018-12-21T10:33:06.541Z,4.42
2018-12-21T10:35:36.881Z,4.41
2018-12-21T10:38:07.789Z,4.42
2018-12-21T10:40:37.093Z,4.43
2018-12-21T10:43:06.333Z,4.43
2018-12-21T10:45:41.646Z,4.46
2018-12-21T10:48:07.656Z,4.49
2018-12-21T10:50:36.893Z,4.52
2018-12-21T10:53:06.218Z,4.57
2018-12-21T10:55:35.493Z,4.62
2018-12-21T10:58:04.913Z,4.64
2018-12-21T11:00:35.420Z,4.68
2018-12-21T11:03:04.994Z,4.72
2018-12-21T11:05:34.522Z,4.70
2018-12-21T11:08:03.829Z,4.69
2018-12-21T11:10:33.586Z,4.68
2018-12-21T11:13:03.618Z,4.65
2018-12-21T11:15:33.324Z,4.65
2018-12-21T11:18:03.826Z,4.65
2018-12-21T11:20:34.426Z,4.66
2018-12-21T11:23:03.992Z,4.66
2018-12-21T11:25:33.752Z,4.69
2018-12-21T11:28:03.098Z,4.68
2018-12-21T11:30:32.387Z,4.66
2018-12-21T11:33:01.655Z,4.65
2018-12-21T11:35:33.481Z,4.70
2018-12-21T11:38:03.349Z,4.70
2018-12-21T11:40:34.398Z,4.70
2018-12-21T11:43:03.845Z,4.74
2018-12-21T11:45:33.972Z,4.74
2018-12-21T11:48:09.517Z,4.74
2018-12-21T11:50:39.588Z,4.76
2018-12-21T11:53:08.876Z,4.76
2018-12-21T11:55:41.422Z,4.76
2018-12-21T11:58:11.238Z,4.77
2018-12-21T12:00:42.567Z,4.81
2018-12-21T12:03:13.967Z,4.85
2018-12-21T12:05:43.516Z,4.92
2018-12-21T12:08:13.621Z,4.94
2018-12-21T12:10:43.904Z,4.94
2018-12-21T12:13:13.563Z,4.95
2018-12-21T12:15:42.815Z,4.94
2018-12-21T12:18:17.177Z,4.95
2018-12-21T12:20:46.787Z,4.97
2018-12-21T12:23:16.452Z,5.02
2018-12-21T12:25:47.298Z,5.04
2018-12-21T12:28:16.868Z,5.05
2018-12-21T12:30:46.363Z,5.09
2018-12-21T12:33:17.196Z,5.11
2018-12-21T12:35:47.358Z,5.15
2018-12-21T12:38:18.657Z,5.17
2018-12-21T12:40:49.102Z,5.19
2018-12-21T12:43:19.373Z,5.20
2018-12-21T12:45:48.797Z,5.24
2018-12-21T12:48:19.134Z,5.27
2018-12-21T12:50:48.884Z,5.28
2018-12-21T12:53:20.645Z,5.30
2018-12-21T12:55:50.734Z,5.27
2018-12-21T12:58:20.252Z,5.29
2018-12-21T13:00:49.601Z,5.28
2018-12-21T13:03:20.756Z,5.23
2018-12-21T13:05:50.300Z,5.21
2018-12-21T13:08:19.837Z,5.22
2018-12-21T13:10:51.961Z,5.26
2018-12-21T13:13:25.356Z,5.32
2018-12-21T13:15:55.129Z,5.34
2018-12-21T13:18:25.822Z,5.36
2018-12-21T13:20:56.378Z,5.39
2018-12-21T13:23:27.281Z,5.42
2018-12-21T13:25:57.109Z,5.39
2018-12-21T13:28:26.487Z,5.38
2018-12-21T13:30:57.460Z,5.41
2018-12-21T13:33:27.032Z,5.41
2018-12-21T13:36:03.310Z,5.40
2018-12-21T13:38:35.343Z,5.39
2018-12-21T13:41:13.697Z,5.41
2018-12-21T13:43:44.368Z,5.41
2018-12-21T13:46:19.190Z,5.43
2018-12-21T13:48:53.569Z,5.43
2018-12-21T13:51:31.045Z,5.42
2018-12-21T13:54:01.751Z,5.44
2018-12-21T13:56:33.283Z,5.45
2018-12-21T13:59:02.625Z,5.48
2018-12-21T14:01:34.266Z,5.49
2018-12-21T14:04:05.885Z,5.50
2018-12-21T14:06:40.447Z,5.51
2018-12-21T14:09:23.344Z,5.53
2018-12-21T14:11:52.808Z,5.59
2018-12-21T14:14:30.448Z,5.60
2018-12-21T14:17:06.666Z,5.59
2018-12-21T14:19:39.574Z,5.58
2018-12-21T14:22:17.541Z,5.62
2018-12-21T14:24:52.310Z,5.63
2018-12-21T14:27:25.329Z,5.64
2018-12-21T14:30:07.211Z,5.68
2018-12-21T14:32:44.359Z,5.73
2018-12-21T14:35:29.515Z,5.72
2018-12-21T14:38:01.326Z,5.76
2018-12-21T14:40:38.410Z,5.80
2018-12-21T14:43:11.087Z,5.88
2018-12-21T14:45:41.865Z,5.89
2018-12-21T14:51:02.023Z,5.91
2018-12-21T14:53:38.340Z,5.97
2018-12-21T14:56:16.391Z,5.97
2018-12-21T15:01:44.931Z,6.00
2018-12-21T15:04:20.026Z,6.04
2018-12-21T15:06:51.752Z,6.10
2018-12-21T15:09:26.434Z,6.13
2018-12-21T15:11:57.029Z,6.11
2018-12-21T15:14:33.559Z,6.09
2018-12-21T15:17:04.377Z,6.13
2018-12-21T15:19:36.807Z,6.15
2018-12-21T15:22:10.553Z,6.17
2018-12-21T15:24:41.344Z,6.27
2018-12-21T15:27:12.507Z,6.25
2018-12-21T15:29:44.287Z,6.34
2018-12-21T15:32:31.034Z,6.34
2018-12-21T15:35:24.854Z,6.34
2018-12-21T15:38:07.367Z,6.29
2018-12-21T15:40:37.305Z,6.31
2018-12-21T15:43:09.464Z,6.38
2018-12-21T15:45:45.256Z,6.44
2018-12-21T15:48:17.971Z,6.45
2018-12-21T15:50:49.282Z,6.49
2018-12-21T15:53:19.165Z,6.50
2018-12-21T15:55:58.424Z,6.54
2018-12-21T15:58:36.076Z,6.61
2018-12-21T16:01:11.147Z,6.61
2018-12-21T16:04:20.364Z,6.69
2018-12-21T16:06:54.301Z,6.76
2018-12-21T16:09:24.049Z,6.77
2018-12-21T16:12:02.848Z,6.79
2018-12-21T16:14:34.616Z,6.81
2018-12-21T16:17:07.277Z,6.84
2018-12-21T16:19:43.446Z,6.84
2018-12-21T16:22:14.633Z,6.84
2018-12-21T16:24:44.276Z,6.86
2018-12-21T16:29:54.829Z,6.84
2018-12-21T16:32:34.092Z,6.85
2018-12-21T16:35:06.445Z,6.91
2018-12-21T16:37:36.077Z,6.96
2018-12-21T16:40:14.753Z,6.99
2018-12-21T16:42:46.927Z,7.04
2018-12-21T16:45:19.953Z,7.13
2018-12-21T16:47:51.767Z,7.14
2018-12-21T16:53:09.319Z,7.21
2018-12-21T16:55:39.754Z,7.21
2018-12-21T16:58:14.782Z,7.31
2018-12-21T17:00:58.485Z,7.29
2018-12-21T17:03:28.882Z,7.26
2018-12-21T17:06:00.864Z,7.28
2018-12-21T17:08:30.947Z,7.32
2018-12-21T17:13:38.913Z,7.39
2018-12-21T17:16:08.717Z,7.38
2018-12-21T17:18:43.412Z,7.42
2018-12-21T17:21:18.707Z,7.49
2018-12-21T17:23:55.814Z,7.52
2018-12-21T17:26:25.631Z,7.53
2018-12-21T17:29:02.895Z,7.59
2018-12-21T17:31:39.889Z,7.58
2018-12-21T17:34:11.527Z,7.63
2018-12-21T17:36:45.183Z,7.68
2018-12-21T17:39:17.489Z,7.75
2018-12-21T17:41:53.811Z,7.83
2018-12-21T17:44:28.374Z,7.86
2018-12-21T17:46:58.618Z,7.83
2018-12-21T17:49:32.094Z,7.79
2018-12-21T17:52:06.025Z,7.89
2018-12-21T17:54:35.723Z,7.97
2018-12-21T17:57:08.885Z,8.00
2018-12-21T17:59:40.495Z,8.09
2018-12-21T18:02:12.518Z,8.10
2018-12-21T18:04:44.329Z,8.10
2018-12-21T18:07:20.398Z,8.07
2018-12-21T18:09:50.025Z,8.08
2018-12-21T18:12:19.510Z,8.11
2018-12-21T18:14:49.150Z,8.11
2018-12-21T18:17:20.484Z,8.23
2018-12-21T18:19:57.179Z,8.21
2018-12-21T18:22:32.966Z,8.26
2018-12-21T18:25:11.909Z,8.24
2018-12-21T18:27:46.025Z,8.26
2018-12-21T18:30:47.933Z,8.23
2018-12-21T18:33:25.491Z,8.25
2018-12-21T18:36:08.331Z,8.24
2018-12-21T18:38:40.767Z,8.26
2018-12-21T18:41:22.730Z,8.20
2018-12-21T18:46:58.899Z,8.24
2018-12-21T18:49:29.125Z,8.23
2018-12-21T18:52:07.774Z,8.24
2018-12-21T18:54:44.756Z,8.26
2018-12-21T18:57:22.563Z,8.29
2018-12-21T18:59:54.649Z,8.28
2018-12-21T19:02:32.680Z,8.36
2018-12-21T19:05:03.400Z,8.36
2018-12-21T19:07:41.783Z,8.31
2018-12-21T19:10:19.079Z,8.29
2018-12-21T19:13:01.374Z,8.28
2018-12-21T19:15:33.702Z,8.26
2018-12-21T19:18:06.934Z,8.24
2018-12-21T19:20:38.038Z,8.22
2018-12-21T19:23:10.393Z,8.16
2018-12-21T19:25:46.347Z,8.20
2018-12-21T19:28:19.333Z,8.22
2018-12-21T19:30:51.579Z,8.19
2018-12-21T19:33:28.909Z,8.18
2018-12-21T19:36:08.244Z,8.13
2018-12-21T19:39:00.681Z,8.11
2018-12-21T19:41:37.657Z,8.09
2018-12-21T19:44:13.560Z,8.13
2018-12-21T19:46:44.798Z,8.16
2018-12-21T19:49:19.913Z,8.16
2018-12-21T19:51:55.076Z,8.14
2018-12-21T19:54:33.695Z,8.10
2018-12-21T19:57:13.242Z,8.07
2018-12-21T19:59:54.321Z,8.01
2018-12-21T20:02:28.155Z,8.04
2018-12-21T20:05:04.546Z,8.06
2018-12-21T20:07:41.356Z,8.12
2018-12-21T20:10:19.676Z,8.16
2018-12-21T20:12:54.411Z,8.14
2018-12-21T20:15:37.279Z,8.10
2018-12-21T20:18:09.281Z,8.13
2018-12-21T20:23:37.022Z,8.20
2018-12-21T20:26:17.160Z,8.25
2018-12-21T20:28:55.257Z,8.14
2018-12-21T20:31:27.130Z,8.10
2018-12-21T20:34:04.663Z,8.12
2018-12-21T20:36:50.650Z,8.12
2018-12-21T20:39:31.910Z,8.11
2018-12-21T20:42:04.722Z,8.14
2018-12-21T20:44:38.077Z,8.16
2018-12-21T20:47:11.405Z,8.19
2018-12-21T20:49:45.884Z,8.31
2018-12-21T20:52:17.006Z,8.29
2018-12-21T20:54:50.023Z,8.30
2018-12-21T20:57:27.615Z,8.38
2018-12-21T20:59:59.638Z,8.35
2018-12-21T21:02:40.451Z,8.29
2018-12-21T21:05:16.436Z,8.26
2018-12-21T21:08:09.167Z,8.27
2018-12-21T21:10:43.024Z,8.23
2018-12-21T21:13:20.012Z,8.26
2018-12-21T21:15:56.179Z,8.35
2018-12-21T21:18:28.104Z,8.40
2018-12-21T21:21:07.680Z,8.44
2018-12-21T21:23:37.460Z,8.41
2018-12-21T21:26:14.971Z,8.37
2018-12-21T21:28:44.843Z,8.38
2018-12-21T21:31:14.907Z,8.36
2018-12-21T21:33:51.678Z,8.31
2018-12-21T21:36:22.968Z,8.32
2018-12-21T21:39:01.547Z,8.33
2018-12-21T21:41:31.593Z,8.34
2018-12-21T21:44:01.248Z,8.30
2018-12-21T21:46:31.744Z,8.31
2018-12-21T21:49:04.693Z,8.30
2018-12-21T21:52:41.576Z,8.25
2018-12-21T21:55:11.204Z,8.18
2018-12-21T21:57:42.930Z,8.12
2018-12-21T22:00:14.507Z,8.08
2018-12-21T22:02:47.631Z,8.04
2018-12-21T22:05:17.205Z,8.04
2018-12-21T22:07:47.362Z,8.03
2018-12-21T22:10:17.050Z,8.01
2018-12-21T22:12:48.957Z,8.00
2018-12-21T22:15:20.549Z,7.98
2018-12-21T22:17:51.767Z,8.01
2018-12-21T22:20:21.849Z,8.04
2018-12-21T22:22:54.539Z,8.06
2018-12-21T22:25:25.662Z,8.05
2018-12-21T22:27:56.006Z,8.08
2018-12-21T22:30:25.389Z,8.09
2018-12-21T22:32:55.732Z,8.17
2018-12-21T22:35:25.932Z,8.15
2018-12-21T22:37:55.605Z,8.16
2018-12-21T22:40:24.915Z,8.13
2018-12-21T22:42:57.010Z,8.10
2018-12-21T22:45:27.027Z,8.10
2018-12-21T22:47:57.630Z,8.04
2018-12-21T22:50:27.441Z,8.04
2018-12-21T22:52:57.361Z,8.16
2018-12-21T22:55:27.248Z,8.15
2018-12-21T22:57:56.960Z,8.16
2018-12-21T23:00:39.999Z,8.23
2018-12-21T23:03:09.359Z,8.26
2018-12-21T23:05:39.566Z,8.21
2018-12-21T23:08:11.497Z,8.16
2018-12-21T23:10:41.418Z,8.10
2018-12-21T23:13:11.831Z,8.12
2018-12-21T23:15:42.005Z,8.11
2018-12-21T23:18:16.773Z,8.10
2018-12-21T23:20:49.663Z,8.07
2018-12-21T23:23:19.957Z,8.02
2018-12-21T23:25:49.612Z,8.05
2018-12-21T23:28:19.712Z,8.01
2018-12-21T23:30:49.067Z,7.95
2018-12-21T23:33:18.462Z,7.92
2018-12-21T23:35:48.326Z,7.91
2018-12-21T23:38:18.004Z,7.86
2018-12-21T23:40:47.278Z,7.83
2018-12-21T23:43:16.585Z,7.83
2018-12-21T23:45:46.781Z,7.82
2018-12-21T23:48:16.293Z,7.89
2018-12-21T23:50:45.883Z,7.89
2018-12-21T23:53:15.860Z,7.91
2018-12-21T23:55:47.789Z,7.85
2018-12-21T23:58:17.994Z,7.76
